sensor_id;sensor_type;location;lat;lon;timestamp;P1;durP1;ratioP1;P2;durP2;ratioP2
75423;SDS011;64005;55.160;36.002;2023-04-24T00:02:22;8.15;;;4.30;;
75423;SDS011;64005;55.160;36.002;2023-04-24T00:04:49;12.07;;;4.97;;
75423;SDS011;64005;55.160;36.002;2023-04-24T00:07:17;12.63;;;4.55;;
75423;SDS011;64005;55.160;36.002;2023-04-24T00:09:45;9.82;;;4.70;;
75423;SDS011;64005;55.160;36.002;2023-04-24T00:12:13;11.52;;;5.07;;
75423;SDS011;64005;55.160;36.002;2023-04-24T00:14:40;15.32;;;4.60;;
75423;SDS011;64005;55.160;36.002;2023-04-24T00:17:08;9.68;;;5.40;;
75423;SDS011;64005;55.160;36.002;2023-04-24T00:19:37;11.10;;;4.57;;
75423;SDS011;64005;55.160;36.002;2023-04-24T00:22:05;10.75;;;5.10;;
75423;SDS011;64005;55.160;36.002;2023-04-24T00:24:32;10.57;;;5.40;;
75423;SDS011;64005;55.160;36.002;2023-04-24T00:27:00;8.82;;;4.47;;
75423;SDS011;64005;55.160;36.002;2023-04-24T00:29:28;9.07;;;4.13;;
75423;SDS011;64005;55.160;36.002;2023-04-24T00:31:55;8.70;;;4.28;;
75423;SDS011;64005;55.160;36.002;2023-04-24T00:34:23;12.00;;;4.95;;
75423;SDS011;64005;55.160;36.002;2023-04-24T00:36:52;8.68;;;4.05;;
75423;SDS011;64005;55.160;36.002;2023-04-24T00:39:20;9.18;;;4.50;;
75423;SDS011;64005;55.160;36.002;2023-04-24T00:41:48;10.90;;;4.68;;
75423;SDS011;64005;55.160;36.002;2023-04-24T00:44:16;11.95;;;4.80;;
75423;SDS011;64005;55.160;36.002;2023-04-24T00:46:43;10.38;;;4.93;;
75423;SDS011;64005;55.160;36.002;2023-04-24T00:49:12;9.60;;;4.85;;
75423;SDS011;64005;55.160;36.002;2023-04-24T00:51:40;11.15;;;4.70;;
75423;SDS011;64005;55.160;36.002;2023-04-24T00:54:12;9.32;;;4.43;;
75423;SDS011;64005;55.160;36.002;2023-04-24T00:56:40;8.70;;;4.38;;
75423;SDS011;64005;55.160;36.002;2023-04-24T00:59:09;8.98;;;4.00;;
75423;SDS011;64005;55.160;36.002;2023-04-24T01:01:37;8.88;;;4.25;;
75423;SDS011;64005;55.160;36.002;2023-04-24T01:04:07;9.50;;;5.28;;
75423;SDS011;64005;55.160;36.002;2023-04-24T01:06:36;10.38;;;4.78;;
75423;SDS011;64005;55.160;36.002;2023-04-24T01:09:06;8.82;;;4.80;;
75423;SDS011;64005;55.160;36.002;2023-04-24T01:11:36;8.80;;;4.57;;
75423;SDS011;64005;55.160;36.002;2023-04-24T01:14:04;9.73;;;4.45;;
75423;SDS011;64005;55.160;36.002;2023-04-24T01:16:31;9.13;;;4.43;;
75423;SDS011;64005;55.160;36.002;2023-04-24T01:18:59;9.05;;;3.88;;
75423;SDS011;64005;55.160;36.002;2023-04-24T01:21:27;9.20;;;4.70;;
75423;SDS011;64005;55.160;36.002;2023-04-24T01:23:58;12.52;;;5.53;;
75423;SDS011;64005;55.160;36.002;2023-04-24T01:26:26;7.70;;;4.38;;
75423;SDS011;64005;55.160;36.002;2023-04-24T01:28:53;14.65;;;5.30;;
75423;SDS011;64005;55.160;36.002;2023-04-24T01:31:21;13.60;;;4.90;;
75423;SDS011;64005;55.160;36.002;2023-04-24T01:33:49;12.18;;;5.00;;
75423;SDS011;64005;55.160;36.002;2023-04-24T01:36:18;12.32;;;4.50;;
75423;SDS011;64005;55.160;36.002;2023-04-24T01:38:46;10.07;;;4.55;;
75423;SDS011;64005;55.160;36.002;2023-04-24T01:41:15;11.77;;;4.75;;
75423;SDS011;64005;55.160;36.002;2023-04-24T01:43:43;8.35;;;4.60;;
75423;SDS011;64005;55.160;36.002;2023-04-24T01:46:10;11.30;;;5.63;;
75423;SDS011;64005;55.160;36.002;2023-04-24T01:48:38;11.57;;;5.70;;
75423;SDS011;64005;55.160;36.002;2023-04-24T01:51:05;10.48;;;4.63;;
75423;SDS011;64005;55.160;36.002;2023-04-24T01:53:33;13.25;;;5.00;;
75423;SDS011;64005;55.160;36.002;2023-04-24T01:56:01;10.35;;;5.40;;
75423;SDS011;64005;55.160;36.002;2023-04-24T01:58:31;7.70;;;4.15;;
75423;SDS011;64005;55.160;36.002;2023-04-24T02:00:59;12.65;;;4.82;;
75423;SDS011;64005;55.160;36.002;2023-04-24T02:03:27;13.23;;;4.90;;
75423;SDS011;64005;55.160;36.002;2023-04-24T02:05:54;8.70;;;4.78;;
75423;SDS011;64005;55.160;36.002;2023-04-24T02:08:22;12.18;;;5.03;;
75423;SDS011;64005;55.160;36.002;2023-04-24T02:10:49;11.40;;;5.10;;
75423;SDS011;64005;55.160;36.002;2023-04-24T02:13:17;10.32;;;4.95;;
75423;SDS011;64005;55.160;36.002;2023-04-24T02:15:46;12.30;;;5.07;;
75423;SDS011;64005;55.160;36.002;2023-04-24T02:18:14;11.07;;;5.38;;
75423;SDS011;64005;55.160;36.002;2023-04-24T02:20:42;12.93;;;4.63;;
75423;SDS011;64005;55.160;36.002;2023-04-24T02:23:09;12.98;;;5.43;;
75423;SDS011;64005;55.160;36.002;2023-04-24T02:25:38;10.75;;;5.03;;
75423;SDS011;64005;55.160;36.002;2023-04-24T02:28:06;11.25;;;5.43;;
75423;SDS011;64005;55.160;36.002;2023-04-24T02:30:33;9.07;;;5.28;;
75423;SDS011;64005;55.160;36.002;2023-04-24T02:33:02;11.65;;;5.78;;
75423;SDS011;64005;55.160;36.002;2023-04-24T02:35:30;16.70;;;5.30;;
75423;SDS011;64005;55.160;36.002;2023-04-24T02:37:58;9.40;;;5.15;;
75423;SDS011;64005;55.160;36.002;2023-04-24T02:40:25;9.73;;;5.40;;
75423;SDS011;64005;55.160;36.002;2023-04-24T02:42:52;13.85;;;5.85;;
75423;SDS011;64005;55.160;36.002;2023-04-24T02:45:20;11.45;;;5.45;;
75423;SDS011;64005;55.160;36.002;2023-04-24T02:47:47;10.27;;;5.05;;
75423;SDS011;64005;55.160;36.002;2023-04-24T02:50:17;10.23;;;5.72;;
75423;SDS011;64005;55.160;36.002;2023-04-24T02:52:44;11.38;;;5.43;;
75423;SDS011;64005;55.160;36.002;2023-04-24T02:55:12;12.77;;;5.80;;
75423;SDS011;64005;55.160;36.002;2023-04-24T02:57:39;9.70;;;5.45;;
75423;SDS011;64005;55.160;36.002;2023-04-24T03:00:07;14.38;;;5.28;;
75423;SDS011;64005;55.160;36.002;2023-04-24T03:02:36;13.48;;;6.00;;
75423;SDS011;64005;55.160;36.002;2023-04-24T03:05:04;11.02;;;5.78;;
75423;SDS011;64005;55.160;36.002;2023-04-24T03:07:34;12.23;;;5.53;;
75423;SDS011;64005;55.160;36.002;2023-04-24T03:10:02;11.43;;;6.30;;
75423;SDS011;64005;55.160;36.002;2023-04-24T03:12:31;13.63;;;6.35;;
75423;SDS011;64005;55.160;36.002;2023-04-24T03:14:58;14.80;;;6.43;;
75423;SDS011;64005;55.160;36.002;2023-04-24T03:17:26;11.15;;;5.72;;
75423;SDS011;64005;55.160;36.002;2023-04-24T03:19:53;10.00;;;5.60;;
75423;SDS011;64005;55.160;36.002;2023-04-24T03:22:21;11.40;;;6.32;;
75423;SDS011;64005;55.160;36.002;2023-04-24T03:24:50;13.57;;;6.28;;
75423;SDS011;64005;55.160;36.002;2023-04-24T03:27:17;15.15;;;6.20;;
75423;SDS011;64005;55.160;36.002;2023-04-24T03:29:45;11.48;;;6.07;;
75423;SDS011;64005;55.160;36.002;2023-04-24T03:32:12;11.55;;;6.63;;
75423;SDS011;64005;55.160;36.002;2023-04-24T03:34:40;14.25;;;7.03;;
75423;SDS011;64005;55.160;36.002;2023-04-24T03:37:07;12.48;;;6.18;;
75423;SDS011;64005;55.160;36.002;2023-04-24T03:39:35;14.80;;;6.85;;
75423;SDS011;64005;55.160;36.002;2023-04-24T03:42:04;17.23;;;7.55;;
75423;SDS011;64005;55.160;36.002;2023-04-24T03:44:31;20.42;;;8.43;;
75423;SDS011;64005;55.160;36.002;2023-04-24T03:46:59;14.90;;;7.20;;
75423;SDS011;64005;55.160;36.002;2023-04-24T03:49:26;18.73;;;7.28;;
75423;SDS011;64005;55.160;36.002;2023-04-24T03:51:54;13.52;;;7.78;;
75423;SDS011;64005;55.160;36.002;2023-04-24T03:54:22;16.05;;;7.45;;
75423;SDS011;64005;55.160;36.002;2023-04-24T03:56:49;14.98;;;7.60;;
75423;SDS011;64005;55.160;36.002;2023-04-24T03:59:18;15.15;;;7.07;;
75423;SDS011;64005;55.160;36.002;2023-04-24T04:01:46;16.40;;;8.13;;
75423;SDS011;64005;55.160;36.002;2023-04-24T04:04:13;16.58;;;7.72;;
75423;SDS011;64005;55.160;36.002;2023-04-24T04:06:41;14.40;;;7.13;;
75423;SDS011;64005;55.160;36.002;2023-04-24T04:09:09;14.98;;;7.63;;
75423;SDS011;64005;55.160;36.002;2023-04-24T04:11:37;15.63;;;7.28;;
75423;SDS011;64005;55.160;36.002;2023-04-24T04:14:04;12.20;;;7.30;;
75423;SDS011;64005;55.160;36.002;2023-04-24T04:16:33;12.10;;;6.85;;
75423;SDS011;64005;55.160;36.002;2023-04-24T04:19:02;14.85;;;7.03;;
75423;SDS011;64005;55.160;36.002;2023-04-24T04:21:30;14.68;;;7.00;;
75423;SDS011;64005;55.160;36.002;2023-04-24T04:23:57;15.98;;;7.50;;
75423;SDS011;64005;55.160;36.002;2023-04-24T04:26:25;18.63;;;7.47;;
75423;SDS011;64005;55.160;36.002;2023-04-24T04:28:52;14.18;;;6.78;;
75423;SDS011;64005;55.160;36.002;2023-04-24T04:31:20;11.73;;;6.60;;
75423;SDS011;64005;55.160;36.002;2023-04-24T04:33:50;15.00;;;7.10;;
75423;SDS011;64005;55.160;36.002;2023-04-24T04:36:17;11.90;;;6.50;;
75423;SDS011;64005;55.160;36.002;2023-04-24T04:38:46;11.82;;;6.65;;
75423;SDS011;64005;55.160;36.002;2023-04-24T04:41:13;12.48;;;6.43;;
75423;SDS011;64005;55.160;36.002;2023-04-24T04:43:42;12.85;;;7.03;;
75423;SDS011;64005;55.160;36.002;2023-04-24T04:48:45;11.90;;;6.65;;
75423;SDS011;64005;55.160;36.002;2023-04-24T04:53:50;13.63;;;7.00;;
75423;SDS011;64005;55.160;36.002;2023-04-24T04:56:17;11.68;;;6.85;;
75423;SDS011;64005;55.160;36.002;2023-04-24T05:06:37;13.38;;;6.25;;
75423;SDS011;64005;55.160;36.002;2023-04-24T05:09:07;10.15;;;5.50;;
75423;SDS011;64005;55.160;36.002;2023-04-24T05:14:10;10.27;;;6.20;;
75423;SDS011;64005;55.160;36.002;2023-04-24T05:16:39;10.45;;;5.95;;
75423;SDS011;64005;55.160;36.002;2023-04-24T05:19:07;12.88;;;6.22;;
75423;SDS011;64005;55.160;36.002;2023-04-24T05:21:34;13.52;;;7.03;;
75423;SDS011;64005;55.160;36.002;2023-04-24T05:24:03;13.38;;;6.35;;
75423;SDS011;64005;55.160;36.002;2023-04-24T05:26:33;12.15;;;6.03;;
75423;SDS011;64005;55.160;36.002;2023-04-24T05:45:00;10.73;;;5.47;;
75423;SDS011;64005;55.160;36.002;2023-04-24T05:53:24;11.23;;;5.82;;
75423;SDS011;64005;55.160;36.002;2023-04-24T05:55:52;10.80;;;6.13;;
75423;SDS011;64005;55.160;36.002;2023-04-24T06:01:13;10.02;;;6.03;;
75423;SDS011;64005;55.160;36.002;2023-04-24T06:18:22;9.07;;;5.38;;
75423;SDS011;64005;55.160;36.002;2023-04-24T06:26:28;9.13;;;5.75;;
75423;SDS011;64005;55.160;36.002;2023-04-24T06:51:49;11.07;;;4.85;;
75423;SDS011;64005;55.160;36.002;2023-04-24T07:06:05;7.60;;;4.15;;
75423;SDS011;64005;55.160;36.002;2023-04-24T07:34:35;6.68;;;3.42;;
75423;SDS011;64005;55.160;36.002;2023-04-24T07:37:03;7.28;;;3.90;;
75423;SDS011;64005;55.160;36.002;2023-04-24T07:50:13;5.88;;;3.17;;
75423;SDS011;64005;55.160;36.002;2023-04-24T10:24:53;6.88;;;2.58;;
75423;SDS011;64005;55.160;36.002;2023-04-24T10:58:39;7.40;;;2.97;;
75423;SDS011;64005;55.160;36.002;2023-04-24T13:00:58;4.88;;;2.20;;
75423;SDS011;64005;55.160;36.002;2023-04-24T13:30:36;6.60;;;2.65;;
75423;SDS011;64005;55.160;36.002;2023-04-24T13:41:14;10.13;;;3.08;;
75423;SDS011;64005;55.160;36.002;2023-04-24T13:48:58;5.18;;;2.15;;
75423;SDS011;64005;55.160;36.002;2023-04-24T14:23:05;6.63;;;2.25;;
75423;SDS011;64005;55.160;36.002;2023-04-24T14:40:00;4.90;;;1.98;;
75423;SDS011;64005;55.160;36.002;2023-04-24T14:53:16;8.25;;;2.75;;
75423;SDS011;64005;55.160;36.002;2023-04-24T14:55:46;6.60;;;3.30;;
75423;SDS011;64005;55.160;36.002;2023-04-24T15:18:57;8.73;;;3.38;;
75423;SDS011;64005;55.160;36.002;2023-04-24T15:40:55;10.82;;;4.57;;
75423;SDS011;64005;55.160;36.002;2023-04-24T15:46:00;10.93;;;5.18;;
75423;SDS011;64005;55.160;36.002;2023-04-24T15:51:03;9.40;;;4.13;;
75423;SDS011;64005;55.160;36.002;2023-04-24T15:53:31;7.93;;;3.72;;
75423;SDS011;64005;55.160;36.002;2023-04-24T16:30:29;11.57;;;5.10;;
75423;SDS011;64005;55.160;36.002;2023-04-24T16:35:40;14.18;;;5.00;;
75423;SDS011;64005;55.160;36.002;2023-04-24T16:40:44;12.02;;;5.50;;
75423;SDS011;64005;55.160;36.002;2023-04-24T16:43:14;11.18;;;4.63;;
75423;SDS011;64005;55.160;36.002;2023-04-24T16:49:00;10.45;;;4.70;;
75423;SDS011;64005;55.160;36.002;2023-04-24T16:51:28;9.18;;;4.65;;
75423;SDS011;64005;55.160;36.002;2023-04-24T16:53:56;12.23;;;4.88;;
75423;SDS011;64005;55.160;36.002;2023-04-24T16:56:23;9.45;;;4.80;;
75423;SDS011;64005;55.160;36.002;2023-04-24T16:58:51;14.43;;;6.47;;
75423;SDS011;64005;55.160;36.002;2023-04-24T17:01:18;13.63;;;6.40;;
75423;SDS011;64005;55.160;36.002;2023-04-24T17:03:46;10.40;;;5.53;;
75423;SDS011;64005;55.160;36.002;2023-04-24T17:06:15;14.32;;;6.80;;
75423;SDS011;64005;55.160;36.002;2023-04-24T17:08:42;19.60;;;8.82;;
75423;SDS011;64005;55.160;36.002;2023-04-24T17:11:10;18.38;;;8.05;;
75423;SDS011;64005;55.160;36.002;2023-04-24T17:13:37;16.38;;;6.43;;
75423;SDS011;64005;55.160;36.002;2023-04-24T17:16:05;16.02;;;7.38;;
75423;SDS011;64005;55.160;36.002;2023-04-24T17:18:32;13.40;;;6.75;;
75423;SDS011;64005;55.160;36.002;2023-04-24T17:21:00;12.18;;;6.20;;
75423;SDS011;64005;55.160;36.002;2023-04-24T17:23:29;12.88;;;6.50;;
75423;SDS011;64005;55.160;36.002;2023-04-24T17:25:56;14.30;;;6.28;;
75423;SDS011;64005;55.160;36.002;2023-04-24T17:28:25;13.68;;;6.65;;
75423;SDS011;64005;55.160;36.002;2023-04-24T17:30:54;13.15;;;5.90;;
75423;SDS011;64005;55.160;36.002;2023-04-24T17:33:23;14.77;;;6.32;;
75423;SDS011;64005;55.160;36.002;2023-04-24T17:35:51;18.08;;;8.00;;
75423;SDS011;64005;55.160;36.002;2023-04-24T17:38:18;14.55;;;7.03;;
75423;SDS011;64005;55.160;36.002;2023-04-24T17:40:47;19.45;;;8.50;;
75423;SDS011;64005;55.160;36.002;2023-04-24T17:43:17;19.92;;;8.50;;
75423;SDS011;64005;55.160;36.002;2023-04-24T17:45:45;21.13;;;9.85;;
75423;SDS011;64005;55.160;36.002;2023-04-24T17:48:14;25.60;;;11.25;;
75423;SDS011;64005;55.160;36.002;2023-04-24T17:50:42;27.70;;;12.57;;
75423;SDS011;64005;55.160;36.002;2023-04-24T17:53:10;28.15;;;12.02;;
75423;SDS011;64005;55.160;36.002;2023-04-24T17:55:38;23.25;;;9.88;;
75423;SDS011;64005;55.160;36.002;2023-04-24T17:58:09;24.95;;;10.40;;
75423;SDS011;64005;55.160;36.002;2023-04-24T18:00:37;20.67;;;9.63;;
75423;SDS011;64005;55.160;36.002;2023-04-24T18:03:06;21.17;;;10.30;;
75423;SDS011;64005;55.160;36.002;2023-04-24T18:05:35;21.70;;;9.27;;
75423;SDS011;64005;55.160;36.002;2023-04-24T18:08:04;20.30;;;9.65;;
75423;SDS011;64005;55.160;36.002;2023-04-24T18:10:32;21.27;;;9.57;;
75423;SDS011;64005;55.160;36.002;2023-04-24T18:13:02;24.67;;;9.57;;
75423;SDS011;64005;55.160;36.002;2023-04-24T18:15:32;17.10;;;8.38;;
75423;SDS011;64005;55.160;36.002;2023-04-24T18:18:00;18.08;;;7.50;;
75423;SDS011;64005;55.160;36.002;2023-04-24T18:20:28;19.45;;;8.13;;
75423;SDS011;64005;55.160;36.002;2023-04-24T18:22:56;23.55;;;10.60;;
75423;SDS011;64005;55.160;36.002;2023-04-24T18:25:23;21.38;;;10.73;;
75423;SDS011;64005;55.160;36.002;2023-04-24T18:27:52;19.90;;;10.65;;
75423;SDS011;64005;55.160;36.002;2023-04-24T18:30:20;22.15;;;10.30;;
75423;SDS011;64005;55.160;36.002;2023-04-24T18:32:51;24.05;;;10.50;;
75423;SDS011;64005;55.160;36.002;2023-04-24T18:35:19;27.42;;;11.93;;
75423;SDS011;64005;55.160;36.002;2023-04-24T18:37:47;31.73;;;11.02;;
75423;SDS011;64005;55.160;36.002;2023-04-24T18:40:15;25.63;;;11.43;;
75423;SDS011;64005;55.160;36.002;2023-04-24T18:42:43;27.80;;;10.57;;
75423;SDS011;64005;55.160;36.002;2023-04-24T18:45:11;23.30;;;10.40;;
75423;SDS011;64005;55.160;36.002;2023-04-24T18:47:39;19.92;;;8.25;;
75423;SDS011;64005;55.160;36.002;2023-04-24T18:50:08;18.88;;;7.78;;
75423;SDS011;64005;55.160;36.002;2023-04-24T18:52:37;20.98;;;9.18;;
75423;SDS011;64005;55.160;36.002;2023-04-24T18:55:05;22.80;;;8.95;;
75423;SDS011;64005;55.160;36.002;2023-04-24T18:57:34;20.65;;;10.15;;
75423;SDS011;64005;55.160;36.002;2023-04-24T19:00:02;21.58;;;9.48;;
75423;SDS011;64005;55.160;36.002;2023-04-24T19:02:33;23.48;;;10.68;;
75423;SDS011;64005;55.160;36.002;2023-04-24T19:05:01;21.73;;;9.50;;
75423;SDS011;64005;55.160;36.002;2023-04-24T19:07:33;23.88;;;9.63;;
75423;SDS011;64005;55.160;36.002;2023-04-24T19:10:01;23.08;;;10.07;;
75423;SDS011;64005;55.160;36.002;2023-04-24T19:12:30;22.17;;;10.40;;
75423;SDS011;64005;55.160;36.002;2023-04-24T19:14:58;26.90;;;9.00;;
75423;SDS011;64005;55.160;36.002;2023-04-24T19:17:26;22.98;;;10.32;;
75423;SDS011;64005;55.160;36.002;2023-04-24T19:19:54;25.92;;;10.50;;
75423;SDS011;64005;55.160;36.002;2023-04-24T19:22:22;28.15;;;11.57;;
75423;SDS011;64005;55.160;36.002;2023-04-24T19:24:51;31.30;;;12.32;;
75423;SDS011;64005;55.160;36.002;2023-04-24T19:27:19;33.20;;;12.60;;
75423;SDS011;64005;55.160;36.002;2023-04-24T19:29:46;25.50;;;10.77;;
75423;SDS011;64005;55.160;36.002;2023-04-24T19:32:14;19.98;;;8.85;;
75423;SDS011;64005;55.160;36.002;2023-04-24T19:34:42;21.17;;;7.88;;
75423;SDS011;64005;55.160;36.002;2023-04-24T19:37:09;27.33;;;10.52;;
75423;SDS011;64005;55.160;36.002;2023-04-24T19:39:38;21.75;;;8.82;;
75423;SDS011;64005;55.160;36.002;2023-04-24T19:42:07;20.92;;;9.63;;
75423;SDS011;64005;55.160;36.002;2023-04-24T19:44:34;17.33;;;8.10;;
75423;SDS011;64005;55.160;36.002;2023-04-24T19:47:02;17.58;;;9.15;;
75423;SDS011;64005;55.160;36.002;2023-04-24T19:49:29;28.20;;;14.98;;
75423;SDS011;64005;55.160;36.002;2023-04-24T19:51:57;23.55;;;12.35;;
75423;SDS011;64005;55.160;36.002;2023-04-24T19:54:24;22.90;;;13.70;;
75423;SDS011;64005;55.160;36.002;2023-04-24T19:56:52;22.40;;;10.90;;
75423;SDS011;64005;55.160;36.002;2023-04-24T19:59:21;13.60;;;7.05;;
75423;SDS011;64005;55.160;36.002;2023-04-24T20:01:49;13.85;;;6.88;;
75423;SDS011;64005;55.160;36.002;2023-04-24T20:04:18;12.77;;;6.90;;
75423;SDS011;64005;55.160;36.002;2023-04-24T20:06:47;13.23;;;7.18;;
75423;SDS011;64005;55.160;36.002;2023-04-24T20:09:15;16.00;;;6.82;;
75423;SDS011;64005;55.160;36.002;2023-04-24T20:11:42;13.77;;;6.90;;
75423;SDS011;64005;55.160;36.002;2023-04-24T20:14:11;15.32;;;6.75;;
75423;SDS011;64005;55.160;36.002;2023-04-24T20:16:40;13.48;;;7.10;;
75423;SDS011;64005;55.160;36.002;2023-04-24T20:19:07;16.92;;;6.80;;
75423;SDS011;64005;55.160;36.002;2023-04-24T20:21:35;12.60;;;6.80;;
75423;SDS011;64005;55.160;36.002;2023-04-24T20:24:03;12.95;;;6.70;;
75423;SDS011;64005;55.160;36.002;2023-04-24T20:26:33;16.98;;;6.35;;
75423;SDS011;64005;55.160;36.002;2023-04-24T20:29:01;12.88;;;6.30;;
75423;SDS011;64005;55.160;36.002;2023-04-24T20:31:29;15.45;;;6.30;;
75423;SDS011;64005;55.160;36.002;2023-04-24T20:33:58;16.38;;;6.55;;
75423;SDS011;64005;55.160;36.002;2023-04-24T20:36:26;12.40;;;6.57;;
75423;SDS011;64005;55.160;36.002;2023-04-24T20:38:54;17.00;;;7.15;;
75423;SDS011;64005;55.160;36.002;2023-04-24T20:41:23;13.68;;;6.47;;
75423;SDS011;64005;55.160;36.002;2023-04-24T20:43:52;12.52;;;5.85;;
75423;SDS011;64005;55.160;36.002;2023-04-24T20:46:19;14.80;;;6.03;;
75423;SDS011;64005;55.160;36.002;2023-04-24T20:48:47;15.95;;;6.28;;
75423;SDS011;64005;55.160;36.002;2023-04-24T20:51:16;13.23;;;5.55;;
75423;SDS011;64005;55.160;36.002;2023-04-24T20:53:45;12.57;;;6.20;;
75423;SDS011;64005;55.160;36.002;2023-04-24T20:56:13;13.15;;;5.70;;
75423;SDS011;64005;55.160;36.002;2023-04-24T20:58:43;10.95;;;5.28;;
75423;SDS011;64005;55.160;36.002;2023-04-24T21:01:11;11.75;;;5.05;;
75423;SDS011;64005;55.160;36.002;2023-04-24T21:03:39;10.40;;;5.35;;
75423;SDS011;64005;55.160;36.002;2023-04-24T21:06:07;12.60;;;5.32;;
75423;SDS011;64005;55.160;36.002;2023-04-24T21:08:37;10.73;;;5.97;;
75423;SDS011;64005;55.160;36.002;2023-04-24T21:11:05;10.20;;;5.68;;
75423;SDS011;64005;55.160;36.002;2023-04-24T21:13:32;12.60;;;5.35;;
75423;SDS011;64005;55.160;36.002;2023-04-24T21:16:00;15.70;;;6.15;;
75423;SDS011;64005;55.160;36.002;2023-04-24T21:18:28;12.00;;;6.18;;
75423;SDS011;64005;55.160;36.002;2023-04-24T21:20:55;14.07;;;6.43;;
75423;SDS011;64005;55.160;36.002;2023-04-24T21:23:23;14.60;;;5.82;;
75423;SDS011;64005;55.160;36.002;2023-04-24T21:25:52;15.90;;;6.35;;
75423;SDS011;64005;55.160;36.002;2023-04-24T21:28:19;15.38;;;7.03;;
75423;SDS011;64005;55.160;36.002;2023-04-24T21:30:49;14.98;;;6.68;;
75423;SDS011;64005;55.160;36.002;2023-04-24T21:33:17;15.68;;;7.00;;
75423;SDS011;64005;55.160;36.002;2023-04-24T21:35:44;14.30;;;6.88;;
75423;SDS011;64005;55.160;36.002;2023-04-24T21:38:11;17.05;;;6.75;;
75423;SDS011;64005;55.160;36.002;2023-04-24T21:40:39;15.13;;;6.70;;
75423;SDS011;64005;55.160;36.002;2023-04-24T21:43:09;16.30;;;6.95;;
75423;SDS011;64005;55.160;36.002;2023-04-24T21:45:37;13.65;;;7.05;;
75423;SDS011;64005;55.160;36.002;2023-04-24T21:48:04;11.73;;;5.95;;
75423;SDS011;64005;55.160;36.002;2023-04-24T21:50:32;15.00;;;6.97;;
75423;SDS011;64005;55.160;36.002;2023-04-24T21:52:59;17.75;;;7.45;;
75423;SDS011;64005;55.160;36.002;2023-04-24T21:55:27;16.05;;;8.20;;
75423;SDS011;64005;55.160;36.002;2023-04-24T21:57:54;13.38;;;7.10;;
75423;SDS011;64005;55.160;36.002;2023-04-24T22:00:24;17.00;;;7.32;;
75423;SDS011;64005;55.160;36.002;2023-04-24T22:02:51;17.17;;;7.28;;
75423;SDS011;64005;55.160;36.002;2023-04-24T22:05:19;17.58;;;8.05;;
75423;SDS011;64005;55.160;36.002;2023-04-24T22:07:46;17.35;;;7.20;;
75423;SDS011;64005;55.160;36.002;2023-04-24T22:10:15;14.23;;;7.05;;
75423;SDS011;64005;55.160;36.002;2023-04-24T22:12:43;14.38;;;6.90;;
75423;SDS011;64005;55.160;36.002;2023-04-24T22:15:10;16.50;;;7.45;;
75423;SDS011;64005;55.160;36.002;2023-04-24T22:17:39;14.27;;;6.32;;
75423;SDS011;64005;55.160;36.002;2023-04-24T22:20:08;15.60;;;6.63;;
75423;SDS011;64005;55.160;36.002;2023-04-24T22:22:36;17.88;;;7.57;;
75423;SDS011;64005;55.160;36.002;2023-04-24T22:25:03;17.10;;;7.20;;
75423;SDS011;64005;55.160;36.002;2023-04-24T22:27:31;13.15;;;6.03;;
75423;SDS011;64005;55.160;36.002;2023-04-24T22:30:00;14.43;;;7.03;;
75423;SDS011;64005;55.160;36.002;2023-04-24T22:32:31;13.77;;;7.03;;
75423;SDS011;64005;55.160;36.002;2023-04-24T22:35:00;19.70;;;7.78;;
75423;SDS011;64005;55.160;36.002;2023-04-24T22:37:30;15.13;;;7.10;;
75423;SDS011;64005;55.160;36.002;2023-04-24T22:39:58;16.08;;;6.93;;
75423;SDS011;64005;55.160;36.002;2023-04-24T22:42:25;14.32;;;7.53;;
75423;SDS011;64005;55.160;36.002;2023-04-24T22:44:53;15.63;;;7.05;;
75423;SDS011;64005;55.160;36.002;2023-04-24T22:47:21;16.75;;;7.50;;
75423;SDS011;64005;55.160;36.002;2023-04-24T22:49:48;13.45;;;7.80;;
75423;SDS011;64005;55.160;36.002;2023-04-24T22:52:19;14.82;;;7.13;;
75423;SDS011;64005;55.160;36.002;2023-04-24T22:54:47;17.30;;;7.25;;
75423;SDS011;64005;55.160;36.002;2023-04-24T22:57:14;17.80;;;7.72;;
75423;SDS011;64005;55.160;36.002;2023-04-24T22:59:41;15.15;;;6.93;;
75423;SDS011;64005;55.160;36.002;2023-04-24T23:02:09;17.10;;;7.57;;
75423;SDS011;64005;55.160;36.002;2023-04-24T23:04:36;14.00;;;7.10;;
75423;SDS011;64005;55.160;36.002;2023-04-24T23:07:04;16.52;;;7.25;;
75423;SDS011;64005;55.160;36.002;2023-04-24T23:09:33;16.05;;;7.43;;
75423;SDS011;64005;55.160;36.002;2023-04-24T23:12:00;20.80;;;7.40;;
75423;SDS011;64005;55.160;36.002;2023-04-24T23:14:28;13.07;;;7.68;;
75423;SDS011;64005;55.160;36.002;2023-04-24T23:16:56;16.85;;;7.22;;
75423;SDS011;64005;55.160;36.002;2023-04-24T23:19:23;18.92;;;7.90;;
75423;SDS011;64005;55.160;36.002;2023-04-24T23:21:51;14.48;;;6.40;;
75423;SDS011;64005;55.160;36.002;2023-04-24T23:24:18;15.05;;;7.30;;
75423;SDS011;64005;55.160;36.002;2023-04-24T23:26:47;14.95;;;7.15;;
75423;SDS011;64005;55.160;36.002;2023-04-24T23:29:15;14.43;;;7.38;;
75423;SDS011;64005;55.160;36.002;2023-04-24T23:31:42;18.77;;;7.35;;
75423;SDS011;64005;55.160;36.002;2023-04-24T23:34:10;12.98;;;6.75;;
75423;SDS011;64005;55.160;36.002;2023-04-24T23:36:37;12.30;;;7.15;;
75423;SDS011;64005;55.160;36.002;2023-04-24T23:39:05;12.40;;;6.25;;
75423;SDS011;64005;55.160;36.002;2023-04-24T23:41:32;15.18;;;7.53;;
75423;SDS011;64005;55.160;36.002;2023-04-24T23:44:01;16.73;;;7.72;;
75423;SDS011;64005;55.160;36.002;2023-04-24T23:46:29;14.93;;;6.97;;
75423;SDS011;64005;55.160;36.002;2023-04-24T23:48:56;13.27;;;7.40;;
75423;SDS011;64005;55.160;36.002;2023-04-24T23:51:24;17.00;;;7.38;;
75423;SDS011;64005;55.160;36.002;2023-04-24T23:53:51;15.88;;;7.38;;
75423;SDS011;64005;55.160;36.002;2023-04-24T23:56:19;12.52;;;6.82;;
75423;SDS011;64005;55.160;36.002;2023-04-24T23:58:48;17.50;;;6.95;;
